sensor_id;sensor_type;location;lat;lon;timestamp;pressure;altitude;pressure_sealevel;temperature;humidity
11268;BME280;49397;47.474;9.416;2022-09-03T00:07:55;95080.47;;;16.98;68.96
11268;BME280;49397;47.474;9.416;2022-09-03T00:10:28;95072.19;;;16.75;70.02
11268;BME280;49397;47.474;9.416;2022-09-03T00:12:59;95077.06;;;16.66;71.14
11268;BME280;49397;47.474;9.416;2022-09-03T00:15:28;95074.25;;;16.63;70.77
11268;BME280;49397;47.474;9.416;2022-09-03T00:18:02;95083.09;;;16.56;71.56
11268;BME280;49397;47.474;9.416;2022-09-03T00:20:38;95074.88;;;16.40;71.88
11268;BME280;49397;47.474;9.416;2022-09-03T00:23:08;95081.34;;;16.32;72.39
11268;BME280;49397;47.474;9.416;2022-09-03T00:28:50;95074.47;;;16.23;73.02
11268;BME280;49397;47.474;9.416;2022-09-03T00:31:24;95075.34;;;16.27;72.55
11268;BME280;49397;47.474;9.416;2022-09-03T00:33:57;95079.41;;;16.02;73.72
11268;BME280;49397;47.474;9.416;2022-09-03T00:36:32;95085.41;;;15.92;74.49
11268;BME280;49397;47.474;9.416;2022-09-03T00:38:58;95087.88;;;15.97;74.12
11268;BME280;49397;47.474;9.416;2022-09-03T00:41:32;95083.72;;;15.87;74.13
11268;BME280;49397;47.474;9.416;2022-09-03T00:47:03;95070.84;;;16.03;74.08
11268;BME280;49397;47.474;9.416;2022-09-03T00:49:56;95065.56;;;16.10;72.34
11268;BME280;49397;47.474;9.416;2022-09-03T00:52:36;95064.66;;;16.22;72.31
11268;BME280;49397;47.474;9.416;2022-09-03T01:00:44;95067.25;;;15.99;75.71
11268;BME280;49397;47.474;9.416;2022-09-03T01:03:16;95074.66;;;15.99;75.80
11268;BME280;49397;47.474;9.416;2022-09-03T01:25:31;95102.81;;;16.15;74.36
11268;BME280;49397;47.474;9.416;2022-09-03T01:30:37;95126.72;;;16.33;70.73
11268;BME280;49397;47.474;9.416;2022-09-03T01:33:13;95145.09;;;16.33;72.15
11268;BME280;49397;47.474;9.416;2022-09-03T01:43:43;95185.78;;;16.03;75.66
11268;BME280;49397;47.474;9.416;2022-09-03T01:46:23;95178.88;;;16.09;74.72
11268;BME280;49397;47.474;9.416;2022-09-03T01:52:14;95179.69;;;16.25;74.59
11268;BME280;49397;47.474;9.416;2022-09-03T01:54:52;95173.72;;;16.35;71.65
11268;BME280;49397;47.474;9.416;2022-09-03T01:57:46;95179.66;;;16.53;71.53
11268;BME280;49397;47.474;9.416;2022-09-03T02:00:17;95168.44;;;16.58;70.73
11268;BME280;49397;47.474;9.416;2022-09-03T02:02:47;95163.47;;;16.63;70.19
11268;BME280;49397;47.474;9.416;2022-09-03T02:05:24;95174.53;;;16.67;69.88
11268;BME280;49397;47.474;9.416;2022-09-03T02:07:57;95176.78;;;16.81;69.33
11268;BME280;49397;47.474;9.416;2022-09-03T02:13:10;95163.88;;;16.97;68.46
11268;BME280;49397;47.474;9.416;2022-09-03T02:15:40;95170.22;;;17.01;68.70
11268;BME280;49397;47.474;9.416;2022-09-03T02:18:14;95173.75;;;17.01;69.40
11268;BME280;49397;47.474;9.416;2022-09-03T02:20:41;95165.03;;;16.96;69.31
11268;BME280;49397;47.474;9.416;2022-09-03T02:23:06;95159.63;;;16.99;69.32
11268;BME280;49397;47.474;9.416;2022-09-03T02:25:36;95160.75;;;16.98;69.56
11268;BME280;49397;47.474;9.416;2022-09-03T02:28:04;95162.00;;;17.01;70.99
11268;BME280;49397;47.474;9.416;2022-09-03T02:30:30;95168.13;;;16.94;72.80
11268;BME280;49397;47.474;9.416;2022-09-03T02:32:56;95164.41;;;16.87;75.03
11268;BME280;49397;47.474;9.416;2022-09-03T02:35:21;95161.44;;;16.76;75.99
11268;BME280;49397;47.474;9.416;2022-09-03T02:37:47;95169.75;;;16.64;78.17
11268;BME280;49397;47.474;9.416;2022-09-03T02:40:12;95169.66;;;16.60;78.60
11268;BME280;49397;47.474;9.416;2022-09-03T02:42:38;95164.63;;;16.63;79.67
11268;BME280;49397;47.474;9.416;2022-09-03T02:45:18;95169.31;;;16.62;79.94
11268;BME280;49397;47.474;9.416;2022-09-03T02:47:46;95174.09;;;16.65;79.58
11268;BME280;49397;47.474;9.416;2022-09-03T02:50:14;95169.56;;;16.57;80.52
11268;BME280;49397;47.474;9.416;2022-09-03T02:52:39;95171.44;;;16.69;78.59
11268;BME280;49397;47.474;9.416;2022-09-03T02:55:05;95170.28;;;16.70;80.97
11268;BME280;49397;47.474;9.416;2022-09-03T02:57:31;95168.47;;;16.77;81.00
11268;BME280;49397;47.474;9.416;2022-09-03T02:59:56;95158.69;;;16.76;79.97
11268;BME280;49397;47.474;9.416;2022-09-03T03:02:22;95161.16;;;16.81;80.04
11268;BME280;49397;47.474;9.416;2022-09-03T03:04:47;95160.81;;;16.83;79.82
11268;BME280;49397;47.474;9.416;2022-09-03T03:07:13;95168.91;;;16.95;77.75
11268;BME280;49397;47.474;9.416;2022-09-03T03:09:39;95160.69;;;16.95;78.23
11268;BME280;49397;47.474;9.416;2022-09-03T03:12:04;95160.75;;;16.98;77.46
11268;BME280;49397;47.474;9.416;2022-09-03T03:14:30;95154.22;;;17.03;78.89
11268;BME280;49397;47.474;9.416;2022-09-03T03:16:55;95157.03;;;17.06;77.25
11268;BME280;49397;47.474;9.416;2022-09-03T03:19:21;95157.41;;;17.05;77.77
11268;BME280;49397;47.474;9.416;2022-09-03T03:21:46;95162.59;;;17.10;78.90
11268;BME280;49397;47.474;9.416;2022-09-03T03:24:11;95162.44;;;17.03;79.79
11268;BME280;49397;47.474;9.416;2022-09-03T03:26:37;95166.25;;;16.98;81.01
11268;BME280;49397;47.474;9.416;2022-09-03T03:29:03;95176.34;;;16.94;81.60
11268;BME280;49397;47.474;9.416;2022-09-03T03:31:32;95173.16;;;16.92;82.69
11268;BME280;49397;47.474;9.416;2022-09-03T03:34:00;95175.81;;;16.89;82.58
11268;BME280;49397;47.474;9.416;2022-09-03T03:36:28;95183.59;;;16.87;84.59
11268;BME280;49397;47.474;9.416;2022-09-03T03:38:56;95172.22;;;16.85;86.53
11268;BME280;49397;47.474;9.416;2022-09-03T03:41:27;95178.66;;;16.77;84.73
11268;BME280;49397;47.474;9.416;2022-09-03T03:43:58;95180.50;;;16.73;85.22
11268;BME280;49397;47.474;9.416;2022-09-03T03:46:28;95183.56;;;16.68;86.16
11268;BME280;49397;47.474;9.416;2022-09-03T03:48:54;95180.09;;;16.55;86.49
11268;BME280;49397;47.474;9.416;2022-09-03T03:51:19;95181.41;;;16.45;86.80
11268;BME280;49397;47.474;9.416;2022-09-03T03:53:45;95176.97;;;16.41;86.72
11268;BME280;49397;47.474;9.416;2022-09-03T03:56:12;95183.25;;;16.41;87.27
11268;BME280;49397;47.474;9.416;2022-09-03T03:58:39;95187.56;;;16.42;85.94
11268;BME280;49397;47.474;9.416;2022-09-03T04:01:16;95190.44;;;16.46;86.91
11268;BME280;49397;47.474;9.416;2022-09-03T04:03:42;95190.44;;;16.46;87.56
11268;BME280;49397;47.474;9.416;2022-09-03T04:06:10;95188.38;;;16.43;87.61
11268;BME280;49397;47.474;9.416;2022-09-03T04:08:38;95192.53;;;16.37;87.84
11268;BME280;49397;47.474;9.416;2022-09-03T04:11:06;95200.75;;;16.37;88.06
11268;BME280;49397;47.474;9.416;2022-09-03T04:13:36;95194.72;;;16.31;89.67
11268;BME280;49397;47.474;9.416;2022-09-03T04:16:07;95197.44;;;16.31;86.72
11268;BME280;49397;47.474;9.416;2022-09-03T04:18:35;95193.38;;;16.25;88.99
11268;BME280;49397;47.474;9.416;2022-09-03T04:21:12;95201.34;;;16.15;89.27
11268;BME280;49397;47.474;9.416;2022-09-03T04:23:41;95187.91;;;16.10;89.72
11268;BME280;49397;47.474;9.416;2022-09-03T04:26:07;95202.75;;;16.09;89.26
11268;BME280;49397;47.474;9.416;2022-09-03T04:28:34;95207.78;;;16.22;88.87
11268;BME280;49397;47.474;9.416;2022-09-03T04:31:01;95211.47;;;16.14;88.76
11268;BME280;49397;47.474;9.416;2022-09-03T04:33:27;95217.91;;;16.06;90.14
11268;BME280;49397;47.474;9.416;2022-09-03T04:38:28;95222.16;;;16.04;88.42
11268;BME280;49397;47.474;9.416;2022-09-03T04:40:54;95222.97;;;16.04;88.53
11268;BME280;49397;47.474;9.416;2022-09-03T04:43:19;95226.66;;;15.96;89.46
11268;BME280;49397;47.474;9.416;2022-09-03T04:45:45;95217.72;;;15.99;90.06
11268;BME280;49397;47.474;9.416;2022-09-03T04:48:10;95235.38;;;16.02;88.91
11268;BME280;49397;47.474;9.416;2022-09-03T04:50:36;95239.44;;;16.08;89.91
11268;BME280;49397;47.474;9.416;2022-09-03T04:53:03;95241.13;;;16.12;89.86
11268;BME280;49397;47.474;9.416;2022-09-03T04:55:33;95239.19;;;16.13;89.81
11268;BME280;49397;47.474;9.416;2022-09-03T04:57:59;95250.00;;;16.21;89.08
11268;BME280;49397;47.474;9.416;2022-09-03T05:00:25;95253.97;;;16.24;88.42
11268;BME280;49397;47.474;9.416;2022-09-03T05:02:50;95260.50;;;16.19;90.73
11268;BME280;49397;47.474;9.416;2022-09-03T05:05:17;95249.09;;;16.17;92.26
11268;BME280;49397;47.474;9.416;2022-09-03T05:07:43;95251.84;;;16.17;90.51
11268;BME280;49397;47.474;9.416;2022-09-03T05:10:10;95247.00;;;16.26;91.00
11268;BME280;49397;47.474;9.416;2022-09-03T05:12:57;95252.56;;;16.30;91.74
11268;BME280;49397;47.474;9.416;2022-09-03T05:15:23;95261.22;;;16.32;92.75
11268;BME280;49397;47.474;9.416;2022-09-03T05:17:48;95256.91;;;16.31;92.85
11268;BME280;49397;47.474;9.416;2022-09-03T05:20:16;95263.72;;;16.37;93.13
11268;BME280;49397;47.474;9.416;2022-09-03T05:22:42;95258.94;;;16.34;91.61
11268;BME280;49397;47.474;9.416;2022-09-03T05:25:08;95264.41;;;16.34;89.59
11268;BME280;49397;47.474;9.416;2022-09-03T05:27:33;95256.97;;;16.34;88.85
11268;BME280;49397;47.474;9.416;2022-09-03T05:29:58;95254.91;;;16.16;89.07
11268;BME280;49397;47.474;9.416;2022-09-03T05:32:24;95252.38;;;16.23;90.41
11268;BME280;49397;47.474;9.416;2022-09-03T05:34:52;95252.75;;;16.21;91.10
11268;BME280;49397;47.474;9.416;2022-09-03T05:37:17;95249.13;;;16.33;90.73
11268;BME280;49397;47.474;9.416;2022-09-03T05:39:43;95240.91;;;16.33;90.04
11268;BME280;49397;47.474;9.416;2022-09-03T05:42:08;95244.19;;;16.38;91.21
11268;BME280;49397;47.474;9.416;2022-09-03T05:44:34;95244.84;;;16.47;87.92
11268;BME280;49397;47.474;9.416;2022-09-03T05:47:00;95241.84;;;16.52;88.52
11268;BME280;49397;47.474;9.416;2022-09-03T05:49:25;95254.22;;;16.62;89.17
11268;BME280;49397;47.474;9.416;2022-09-03T05:51:51;95244.06;;;16.63;88.90
11268;BME280;49397;47.474;9.416;2022-09-03T05:54:16;95249.91;;;16.77;88.62
11268;BME280;49397;47.474;9.416;2022-09-03T05:56:42;95253.50;;;16.81;89.18
11268;BME280;49397;47.474;9.416;2022-09-03T05:59:08;95246.97;;;16.85;88.28
11268;BME280;49397;47.474;9.416;2022-09-03T06:01:39;95251.75;;;16.88;87.55
11268;BME280;49397;47.474;9.416;2022-09-03T06:04:10;95252.72;;;16.96;88.58
11268;BME280;49397;47.474;9.416;2022-09-03T06:06:38;95251.91;;;16.95;88.18
11268;BME280;49397;47.474;9.416;2022-09-03T06:09:07;95245.63;;;16.95;87.97
11268;BME280;49397;47.474;9.416;2022-09-03T06:11:34;95244.28;;;17.04;88.42
11268;BME280;49397;47.474;9.416;2022-09-03T06:14:02;95254.53;;;17.07;87.43
11268;BME280;49397;47.474;9.416;2022-09-03T06:16:37;95253.16;;;17.13;87.63
11268;BME280;49397;47.474;9.416;2022-09-03T06:19:04;95261.88;;;17.19;87.08
11268;BME280;49397;47.474;9.416;2022-09-03T06:21:31;95259.22;;;17.22;87.42
11268;BME280;49397;47.474;9.416;2022-09-03T06:23:57;95255.84;;;17.44;85.56
11268;BME280;49397;47.474;9.416;2022-09-03T06:26:23;95260.06;;;17.57;85.00
11268;BME280;49397;47.474;9.416;2022-09-03T06:28:49;95265.47;;;17.54;84.43
11268;BME280;49397;47.474;9.416;2022-09-03T06:31:18;95262.56;;;17.66;84.81
11268;BME280;49397;47.474;9.416;2022-09-03T06:33:44;95257.34;;;17.76;85.11
11268;BME280;49397;47.474;9.416;2022-09-03T06:36:16;95257.09;;;17.85;80.38
11268;BME280;49397;47.474;9.416;2022-09-03T06:38:43;95251.34;;;17.90;80.19
11268;BME280;49397;47.474;9.416;2022-09-03T06:41:10;95245.75;;;18.05;80.88
11268;BME280;49397;47.474;9.416;2022-09-03T06:43:37;95230.25;;;18.36;79.99
11268;BME280;49397;47.474;9.416;2022-09-03T06:46:10;95226.09;;;18.64;80.41
11268;BME280;49397;47.474;9.416;2022-09-03T06:48:38;95231.22;;;18.66;79.08
11268;BME280;49397;47.474;9.416;2022-09-03T06:51:06;95228.84;;;18.64;79.58
11268;BME280;49397;47.474;9.416;2022-09-03T06:53:36;95211.09;;;18.58;80.99
11268;BME280;49397;47.474;9.416;2022-09-03T06:56:05;95215.66;;;18.51;82.72
11268;BME280;49397;47.474;9.416;2022-09-03T06:58:35;95205.28;;;18.41;83.37
11268;BME280;49397;47.474;9.416;2022-09-03T07:01:07;95193.56;;;18.44;83.30
11268;BME280;49397;47.474;9.416;2022-09-03T07:03:34;95204.84;;;18.20;82.53
11268;BME280;49397;47.474;9.416;2022-09-03T07:06:05;95212.25;;;18.16;83.51
11268;BME280;49397;47.474;9.416;2022-09-03T07:08:32;95210.28;;;18.16;84.84
11268;BME280;49397;47.474;9.416;2022-09-03T07:11:03;95210.34;;;18.20;85.57
11268;BME280;49397;47.474;9.416;2022-09-03T07:13:34;95200.53;;;18.19;85.15
11268;BME280;49397;47.474;9.416;2022-09-03T07:16:11;95201.38;;;18.23;86.69
11268;BME280;49397;47.474;9.416;2022-09-03T07:18:37;95206.44;;;18.21;86.29
11268;BME280;49397;47.474;9.416;2022-09-03T07:21:09;95200.38;;;18.11;86.90
11268;BME280;49397;47.474;9.416;2022-09-03T07:23:36;95198.31;;;18.05;87.69
11268;BME280;49397;47.474;9.416;2022-09-03T07:26:11;95197.16;;;18.06;88.48
11268;BME280;49397;47.474;9.416;2022-09-03T07:28:38;95205.47;;;18.09;87.95
11268;BME280;49397;47.474;9.416;2022-09-03T07:31:07;95200.34;;;18.08;86.86
11268;BME280;49397;47.474;9.416;2022-09-03T07:33:33;95199.25;;;18.13;86.99
11268;BME280;49397;47.474;9.416;2022-09-03T07:36:07;95207.56;;;18.16;87.38
11268;BME280;49397;47.474;9.416;2022-09-03T07:38:34;95196.97;;;18.18;86.65
11268;BME280;49397;47.474;9.416;2022-09-03T07:41:02;95205.75;;;18.04;87.18
11268;BME280;49397;47.474;9.416;2022-09-03T07:43:29;95204.81;;;17.97;88.49
11268;BME280;49397;47.474;9.416;2022-09-03T07:45:56;95212.69;;;17.98;88.07
11268;BME280;49397;47.474;9.416;2022-09-03T07:48:22;95208.53;;;18.27;87.63
11268;BME280;49397;47.474;9.416;2022-09-03T07:50:48;95203.75;;;18.66;85.06
11268;BME280;49397;47.474;9.416;2022-09-03T07:53:16;95205.59;;;19.07;82.95
11268;BME280;49397;47.474;9.416;2022-09-03T07:55:42;95203.09;;;19.24;82.22
11268;BME280;49397;47.474;9.416;2022-09-03T07:58:09;95208.25;;;19.52;81.22
11268;BME280;49397;47.474;9.416;2022-09-03T08:00:38;95209.13;;;19.89;78.75
11268;BME280;49397;47.474;9.416;2022-09-03T08:03:04;95200.25;;;20.03;77.31
11268;BME280;49397;47.474;9.416;2022-09-03T08:05:34;95203.50;;;20.12;77.03
11268;BME280;49397;47.474;9.416;2022-09-03T08:08:03;95208.91;;;20.05;76.33
11268;BME280;49397;47.474;9.416;2022-09-03T08:10:33;95211.22;;;19.99;75.75
11268;BME280;49397;47.474;9.416;2022-09-03T08:12:59;95197.94;;;20.08;76.25
11268;BME280;49397;47.474;9.416;2022-09-03T08:15:25;95198.31;;;20.07;74.62
11268;BME280;49397;47.474;9.416;2022-09-03T08:17:51;95194.28;;;20.30;74.70
11268;BME280;49397;47.474;9.416;2022-09-03T08:20:17;95197.88;;;20.34;73.38
11268;BME280;49397;47.474;9.416;2022-09-03T08:22:42;95197.41;;;20.29;71.51
11268;BME280;49397;47.474;9.416;2022-09-03T08:25:08;95192.19;;;20.57;72.77
11268;BME280;49397;47.474;9.416;2022-09-03T08:27:34;95203.44;;;20.81;72.60
11268;BME280;49397;47.474;9.416;2022-09-03T08:29:59;95197.88;;;20.78;72.00
11268;BME280;49397;47.474;9.416;2022-09-03T08:32:25;95192.97;;;20.57;72.25
11268;BME280;49397;47.474;9.416;2022-09-03T08:34:51;95188.66;;;20.60;71.08
11268;BME280;49397;47.474;9.416;2022-09-03T08:37:17;95187.00;;;20.52;71.36
11268;BME280;49397;47.474;9.416;2022-09-03T08:39:43;95189.22;;;20.79;73.53
11268;BME280;49397;47.474;9.416;2022-09-03T08:42:27;95193.19;;;20.82;71.91
11268;BME280;49397;47.474;9.416;2022-09-03T08:45:01;95192.16;;;20.97;69.81
11268;BME280;49397;47.474;9.416;2022-09-03T08:47:28;95195.84;;;21.12;68.88
11268;BME280;49397;47.474;9.416;2022-09-03T08:53:07;95194.63;;;21.09;68.71
11268;BME280;49397;47.474;9.416;2022-09-03T08:55:41;95186.56;;;21.44;66.75
11268;BME280;49397;47.474;9.416;2022-09-03T08:58:15;95193.09;;;21.76;65.39
11268;BME280;49397;47.474;9.416;2022-09-03T09:05:53;95183.78;;;22.12;66.54
11268;BME280;49397;47.474;9.416;2022-09-03T09:08:32;95183.66;;;21.84;66.39
11268;BME280;49397;47.474;9.416;2022-09-03T09:14:04;95182.69;;;21.59;67.21
11268;BME280;49397;47.474;9.416;2022-09-03T09:19:58;95190.06;;;21.34;67.33
11268;BME280;49397;47.474;9.416;2022-09-03T09:22:45;95195.66;;;21.45;66.94
11268;BME280;49397;47.474;9.416;2022-09-03T09:25:17;95201.50;;;21.36;67.20
11268;BME280;49397;47.474;9.416;2022-09-03T09:27:50;95206.97;;;21.26;67.33
11268;BME280;49397;47.474;9.416;2022-09-03T09:30:18;95205.69;;;21.13;67.85
11268;BME280;49397;47.474;9.416;2022-09-03T09:32:44;95209.13;;;21.02;68.92
11268;BME280;49397;47.474;9.416;2022-09-03T09:35:12;95199.53;;;21.37;65.89
11268;BME280;49397;47.474;9.416;2022-09-03T09:37:53;95193.38;;;21.64;65.42
11268;BME280;49397;47.474;9.416;2022-09-03T09:45:39;95202.00;;;22.38;61.95
11268;BME280;49397;47.474;9.416;2022-09-03T09:48:30;95200.84;;;22.46;63.24
11268;BME280;49397;47.474;9.416;2022-09-03T09:53:33;95198.81;;;22.25;64.46
11268;BME280;49397;47.474;9.416;2022-09-03T09:55:59;95191.66;;;22.21;65.12
11268;BME280;49397;47.474;9.416;2022-09-03T09:58:28;95194.38;;;22.00;66.29
11268;BME280;49397;47.474;9.416;2022-09-03T10:01:02;95195.94;;;21.94;65.20
11268;BME280;49397;47.474;9.416;2022-09-03T10:03:31;95200.69;;;21.97;64.24
11268;BME280;49397;47.474;9.416;2022-09-03T10:06:07;95197.56;;;22.02;63.44
11268;BME280;49397;47.474;9.416;2022-09-03T10:08:53;95201.06;;;21.99;63.93
11268;BME280;49397;47.474;9.416;2022-09-03T10:11:29;95199.22;;;22.41;63.29
11268;BME280;49397;47.474;9.416;2022-09-03T10:13:55;95198.94;;;22.82;60.90
11268;BME280;49397;47.474;9.416;2022-09-03T10:16:26;95194.19;;;22.89;59.74
11268;BME280;49397;47.474;9.416;2022-09-03T10:19:05;95209.59;;;22.66;60.03
11268;BME280;49397;47.474;9.416;2022-09-03T10:21:56;95205.56;;;22.45;62.84
11268;BME280;49397;47.474;9.416;2022-09-03T10:26:54;95210.94;;;21.96;61.77
11268;BME280;49397;47.474;9.416;2022-09-03T10:29:22;95234.53;;;21.76;62.15
11268;BME280;49397;47.474;9.416;2022-09-03T10:34:28;95251.69;;;21.52;63.87
11268;BME280;49397;47.474;9.416;2022-09-03T10:50:48;95259.84;;;21.35;66.39
11268;BME280;49397;47.474;9.416;2022-09-03T10:55:52;95266.16;;;20.91;67.06
11268;BME280;49397;47.474;9.416;2022-09-03T11:04:50;95303.91;;;19.88;75.21
11268;BME280;49397;47.474;9.416;2022-09-03T11:07:25;95316.63;;;19.44;77.72
11268;BME280;49397;47.474;9.416;2022-09-03T11:10:24;95321.50;;;19.09;79.95
11268;BME280;49397;47.474;9.416;2022-09-03T11:13:11;95331.69;;;18.86;82.31
11268;BME280;49397;47.474;9.416;2022-09-03T11:15:51;95339.09;;;18.82;83.86
11268;BME280;49397;47.474;9.416;2022-09-03T11:18:19;95339.31;;;18.73;83.53
11268;BME280;49397;47.474;9.416;2022-09-03T11:20:48;95354.59;;;18.71;85.84
11268;BME280;49397;47.474;9.416;2022-09-03T11:23:16;95363.78;;;18.59;86.19
11268;BME280;49397;47.474;9.416;2022-09-03T11:25:51;95368.13;;;18.60;86.78
11268;BME280;49397;47.474;9.416;2022-09-03T11:31:40;95387.53;;;18.33;84.88
11268;BME280;49397;47.474;9.416;2022-09-03T11:34:14;95377.34;;;18.14;84.08
11268;BME280;49397;47.474;9.416;2022-09-03T11:36:41;95382.66;;;18.07;82.95
11268;BME280;49397;47.474;9.416;2022-09-03T11:39:38;95392.19;;;17.94;83.55
11268;BME280;49397;47.474;9.416;2022-09-03T11:42:12;95398.50;;;17.79;84.74
11268;BME280;49397;47.474;9.416;2022-09-03T11:44:45;95408.25;;;17.76;85.41
11268;BME280;49397;47.474;9.416;2022-09-03T11:47:20;95395.16;;;17.70;83.14
11268;BME280;49397;47.474;9.416;2022-09-03T11:50:06;95389.53;;;17.47;86.12
11268;BME280;49397;47.474;9.416;2022-09-03T11:52:32;95386.50;;;17.52;87.69
11268;BME280;49397;47.474;9.416;2022-09-03T11:54:57;95391.09;;;17.48;85.61
11268;BME280;49397;47.474;9.416;2022-09-03T11:57:28;95394.09;;;17.43;85.48
11268;BME280;49397;47.474;9.416;2022-09-03T12:00:16;95386.13;;;17.38;86.69
11268;BME280;49397;47.474;9.416;2022-09-03T12:03:01;95386.03;;;17.35;87.46
11268;BME280;49397;47.474;9.416;2022-09-03T12:08:36;95368.97;;;17.26;87.58
11268;BME280;49397;47.474;9.416;2022-09-03T12:19:54;95326.78;;;17.30;83.94
11268;BME280;49397;47.474;9.416;2022-09-03T12:22:22;95326.78;;;17.30;84.66
11268;BME280;49397;47.474;9.416;2022-09-03T12:24:49;95328.91;;;17.37;85.83
11268;BME280;49397;47.474;9.416;2022-09-03T12:27:25;95327.59;;;17.46;88.60
11268;BME280;49397;47.474;9.416;2022-09-03T12:29:57;95330.34;;;17.31;82.72
11268;BME280;49397;47.474;9.416;2022-09-03T12:32:31;95323.94;;;17.42;85.47
11268;BME280;49397;47.474;9.416;2022-09-03T12:35:30;95330.75;;;17.48;84.89
11268;BME280;49397;47.474;9.416;2022-09-03T12:37:56;95324.91;;;17.65;84.74
11268;BME280;49397;47.474;9.416;2022-09-03T12:40:26;95329.13;;;17.63;84.11
11268;BME280;49397;47.474;9.416;2022-09-03T12:42:53;95330.41;;;17.50;84.81
11268;BME280;49397;47.474;9.416;2022-09-03T12:45:24;95325.53;;;17.59;81.04
11268;BME280;49397;47.474;9.416;2022-09-03T12:47:51;95317.34;;;17.78;83.51
11268;BME280;49397;47.474;9.416;2022-09-03T12:50:23;95327.84;;;18.10;79.49
11268;BME280;49397;47.474;9.416;2022-09-03T12:52:58;95327.81;;;19.09;77.61
11268;BME280;49397;47.474;9.416;2022-09-03T13:00:38;95321.53;;;19.58;73.41
11268;BME280;49397;47.474;9.416;2022-09-03T13:03:15;95316.75;;;19.81;76.06
11268;BME280;49397;47.474;9.416;2022-09-03T13:05:45;95316.38;;;19.79;74.47
11268;BME280;49397;47.474;9.416;2022-09-03T13:08:19;95308.06;;;20.05;70.18
11268;BME280;49397;47.474;9.416;2022-09-03T13:10:55;95306.47;;;20.33;70.29
11268;BME280;49397;47.474;9.416;2022-09-03T13:13:27;95300.19;;;20.66;68.60
11268;BME280;49397;47.474;9.416;2022-09-03T13:16:05;95300.75;;;20.45;67.91
11268;BME280;49397;47.474;9.416;2022-09-03T13:30:16;95284.00;;;20.28;64.90
11268;BME280;49397;47.474;9.416;2022-09-03T13:33:04;95299.72;;;20.27;65.98
11268;BME280;49397;47.474;9.416;2022-09-03T13:35:36;95294.88;;;20.50;69.45
11268;BME280;49397;47.474;9.416;2022-09-03T13:44:15;95284.97;;;20.82;67.44
11268;BME280;49397;47.474;9.416;2022-09-03T13:46:50;95284.25;;;20.89;70.03
11268;BME280;49397;47.474;9.416;2022-09-03T13:55:27;95275.34;;;21.02;66.27
11268;BME280;49397;47.474;9.416;2022-09-03T14:01:05;95268.38;;;21.16;68.04
11268;BME280;49397;47.474;9.416;2022-09-03T14:09:05;95281.47;;;21.26;65.33
11268;BME280;49397;47.474;9.416;2022-09-03T14:14:40;95275.22;;;21.36;64.34
11268;BME280;49397;47.474;9.416;2022-09-03T14:20:18;95272.97;;;21.52;59.24
11268;BME280;49397;47.474;9.416;2022-09-03T14:25:23;95265.22;;;21.71;64.97
11268;BME280;49397;47.474;9.416;2022-09-03T14:27:49;95264.91;;;21.80;66.99
11268;BME280;49397;47.474;9.416;2022-09-03T14:30:28;95266.28;;;21.56;67.38
11268;BME280;49397;47.474;9.416;2022-09-03T14:33:21;95261.41;;;21.36;70.46
11268;BME280;49397;47.474;9.416;2022-09-03T14:35:57;95269.13;;;21.13;70.98
11268;BME280;49397;47.474;9.416;2022-09-03T14:41:45;95263.69;;;20.79;70.24
11268;BME280;49397;47.474;9.416;2022-09-03T15:05:49;95261.44;;;19.89;73.87
11268;BME280;49397;47.474;9.416;2022-09-03T15:08:20;95269.50;;;20.05;73.63
11268;BME280;49397;47.474;9.416;2022-09-03T15:11:00;95264.63;;;20.21;74.09
11268;BME280;49397;47.474;9.416;2022-09-03T15:13:33;95261.16;;;20.27;73.35
11268;BME280;49397;47.474;9.416;2022-09-03T15:32:05;95242.13;;;20.52;69.37
11268;BME280;49397;47.474;9.416;2022-09-03T15:37:18;95239.06;;;20.60;66.45
11268;BME280;49397;47.474;9.416;2022-09-03T15:39:57;95244.25;;;20.65;66.39
11268;BME280;49397;47.474;9.416;2022-09-03T15:42:26;95231.34;;;20.76;66.97
11268;BME280;49397;47.474;9.416;2022-09-03T15:44:55;95239.22;;;20.74;68.70
11268;BME280;49397;47.474;9.416;2022-09-03T15:50:31;95239.06;;;20.60;71.88
11268;BME280;49397;47.474;9.416;2022-09-03T15:55:38;95246.16;;;20.58;72.14
11268;BME280;49397;47.474;9.416;2022-09-03T15:58:32;95246.91;;;20.58;71.48
11268;BME280;49397;47.474;9.416;2022-09-03T16:01:02;95248.16;;;20.61;71.69
11268;BME280;49397;47.474;9.416;2022-09-03T16:03:36;95242.59;;;20.57;70.07
11268;BME280;49397;47.474;9.416;2022-09-03T16:06:24;95248.91;;;20.61;71.65
11268;BME280;49397;47.474;9.416;2022-09-03T16:08:58;95247.38;;;20.64;70.11
11268;BME280;49397;47.474;9.416;2022-09-03T16:16:56;95247.44;;;20.67;70.97
11268;BME280;49397;47.474;9.416;2022-09-03T16:22:39;95247.81;;;20.69;73.25
11268;BME280;49397;47.474;9.416;2022-09-03T16:25:00;95251.00;;;20.71;73.83
11268;BME280;49397;47.474;9.416;2022-09-03T16:27:37;95251.72;;;20.65;72.21
11268;BME280;49397;47.474;9.416;2022-09-03T16:30:20;95259.56;;;20.63;72.82
11268;BME280;49397;47.474;9.416;2022-09-03T16:41:41;95264.94;;;19.86;77.84
11268;BME280;49397;47.474;9.416;2022-09-03T16:44:30;95263.63;;;19.77;78.47
11268;BME280;49397;47.474;9.416;2022-09-03T16:47:08;95268.38;;;19.80;78.63
11268;BME280;49397;47.474;9.416;2022-09-03T16:53:08;95265.94;;;19.71;79.92
11268;BME280;49397;47.474;9.416;2022-09-03T17:09:26;95279.56;;;19.38;77.87
11268;BME280;49397;47.474;9.416;2022-09-03T17:12:07;95266.97;;;19.37;80.10
11268;BME280;49397;47.474;9.416;2022-09-03T17:25:40;95270.66;;;19.22;83.52
11268;BME280;49397;47.474;9.416;2022-09-03T17:30:57;95280.00;;;19.17;82.38
11268;BME280;49397;47.474;9.416;2022-09-03T17:41:50;95285.69;;;18.83;83.85
11268;BME280;49397;47.474;9.416;2022-09-03T17:49:50;95286.63;;;18.68;83.15
11268;BME280;49397;47.474;9.416;2022-09-03T17:52:37;95288.75;;;18.55;84.38
11268;BME280;49397;47.474;9.416;2022-09-03T17:55:12;95290.97;;;18.50;85.22
11268;BME280;49397;47.474;9.416;2022-09-03T17:57:50;95277.88;;;18.40;83.67
11268;BME280;49397;47.474;9.416;2022-09-03T18:00:43;95285.84;;;18.29;85.19